sensor_id;sensor_type;location;lat;lon;timestamp;P1;durP1;ratioP1;P2;durP2;ratioP2
71427;SDS011;59246;59.102;37.928;2022-07-05T00:02:22;7.05;;;5.55;;
71427;SDS011;59246;59.102;37.928;2022-07-05T00:04:48;8.75;;;6.15;;
71427;SDS011;59246;59.102;37.928;2022-07-05T00:07:16;6.03;;;5.22;;
71427;SDS011;59246;59.102;37.928;2022-07-05T00:09:43;9.07;;;6.10;;
71427;SDS011;59246;59.102;37.928;2022-07-05T00:12:21;8.60;;;5.80;;
71427;SDS011;59246;59.102;37.928;2022-07-05T00:14:50;6.72;;;5.70;;
71427;SDS011;59246;59.102;37.928;2022-07-05T00:17:16;6.45;;;5.57;;
71427;SDS011;59246;59.102;37.928;2022-07-05T00:19:42;10.75;;;6.70;;
71427;SDS011;59246;59.102;37.928;2022-07-05T00:22:08;10.68;;;6.32;;
71427;SDS011;59246;59.102;37.928;2022-07-05T00:24:34;7.47;;;6.10;;
71427;SDS011;59246;59.102;37.928;2022-07-05T00:31:57;7.40;;;6.25;;
71427;SDS011;59246;59.102;37.928;2022-07-05T00:35:03;9.27;;;5.97;;
71427;SDS011;59246;59.102;37.928;2022-07-05T00:37:29;7.57;;;6.22;;
71427;SDS011;59246;59.102;37.928;2022-07-05T00:39:55;6.80;;;6.10;;
71427;SDS011;59246;59.102;37.928;2022-07-05T00:42:21;7.18;;;6.22;;
71427;SDS011;59246;59.102;37.928;2022-07-05T00:44:46;7.57;;;6.13;;
71427;SDS011;59246;59.102;37.928;2022-07-05T00:47:12;6.97;;;6.25;;
71427;SDS011;59246;59.102;37.928;2022-07-05T00:49:38;6.93;;;5.95;;
71427;SDS011;59246;59.102;37.928;2022-07-05T00:52:06;8.80;;;6.93;;
71427;SDS011;59246;59.102;37.928;2022-07-05T00:54:33;8.05;;;6.85;;
71427;SDS011;59246;59.102;37.928;2022-07-05T00:57:01;10.52;;;6.32;;
71427;SDS011;59246;59.102;37.928;2022-07-05T00:59:28;7.55;;;6.75;;
71427;SDS011;59246;59.102;37.928;2022-07-05T01:01:54;8.35;;;6.47;;
71427;SDS011;59246;59.102;37.928;2022-07-05T01:04:20;8.40;;;6.70;;
71427;SDS011;59246;59.102;37.928;2022-07-05T01:06:47;7.15;;;6.45;;
71427;SDS011;59246;59.102;37.928;2022-07-05T01:09:15;8.15;;;6.55;;
71427;SDS011;59246;59.102;37.928;2022-07-05T01:11:43;9.15;;;6.32;;
71427;SDS011;59246;59.102;37.928;2022-07-05T01:14:11;7.63;;;6.47;;
71427;SDS011;59246;59.102;37.928;2022-07-05T01:16:40;8.65;;;7.20;;
71427;SDS011;59246;59.102;37.928;2022-07-05T01:19:06;8.48;;;6.95;;
71427;SDS011;59246;59.102;37.928;2022-07-05T01:21:41;7.13;;;6.18;;
71427;SDS011;59246;59.102;37.928;2022-07-05T01:24:09;6.90;;;6.03;;
71427;SDS011;59246;59.102;37.928;2022-07-05T01:26:39;9.30;;;6.93;;
71427;SDS011;59246;59.102;37.928;2022-07-05T01:29:06;9.35;;;6.63;;
71427;SDS011;59246;59.102;37.928;2022-07-05T01:31:32;9.90;;;6.38;;
71427;SDS011;59246;59.102;37.928;2022-07-05T01:33:57;7.70;;;6.85;;
71427;SDS011;59246;59.102;37.928;2022-07-05T01:36:23;8.20;;;7.40;;
71427;SDS011;59246;59.102;37.928;2022-07-05T01:38:49;8.25;;;6.72;;
71427;SDS011;59246;59.102;37.928;2022-07-05T01:41:15;8.85;;;6.85;;
71427;SDS011;59246;59.102;37.928;2022-07-05T01:43:41;10.45;;;6.63;;
71427;SDS011;59246;59.102;37.928;2022-07-05T01:46:07;8.70;;;6.22;;
71427;SDS011;59246;59.102;37.928;2022-07-05T01:48:34;8.32;;;7.07;;
71427;SDS011;59246;59.102;37.928;2022-07-05T01:51:37;7.88;;;7.07;;
71427;SDS011;59246;59.102;37.928;2022-07-05T01:53:58;11.95;;;7.50;;
71427;SDS011;59246;59.102;37.928;2022-07-05T01:56:23;7.88;;;6.40;;
71427;SDS011;59246;59.102;37.928;2022-07-05T01:58:49;10.25;;;7.20;;
71427;SDS011;59246;59.102;37.928;2022-07-05T02:01:27;11.75;;;7.22;;
71427;SDS011;59246;59.102;37.928;2022-07-05T02:03:57;10.13;;;7.47;;
71427;SDS011;59246;59.102;37.928;2022-07-05T02:06:23;8.07;;;7.18;;
71427;SDS011;59246;59.102;37.928;2022-07-05T02:08:49;11.02;;;8.05;;
71427;SDS011;59246;59.102;37.928;2022-07-05T02:11:14;11.23;;;7.43;;
71427;SDS011;59246;59.102;37.928;2022-07-05T02:13:40;8.73;;;7.75;;
71427;SDS011;59246;59.102;37.928;2022-07-05T02:16:06;9.38;;;7.88;;
71427;SDS011;59246;59.102;37.928;2022-07-05T02:18:31;9.07;;;7.80;;
71427;SDS011;59246;59.102;37.928;2022-07-05T02:20:57;14.27;;;8.32;;
71427;SDS011;59246;59.102;37.928;2022-07-05T02:23:22;12.27;;;7.85;;
71427;SDS011;59246;59.102;37.928;2022-07-05T02:25:48;9.90;;;8.55;;
71427;SDS011;59246;59.102;37.928;2022-07-05T02:28:14;10.13;;;8.13;;
71427;SDS011;59246;59.102;37.928;2022-07-05T02:30:39;12.68;;;8.93;;
71427;SDS011;59246;59.102;37.928;2022-07-05T02:33:05;9.43;;;8.43;;
71427;SDS011;59246;59.102;37.928;2022-07-05T02:35:30;8.95;;;7.95;;
71427;SDS011;59246;59.102;37.928;2022-07-05T02:37:56;11.32;;;7.90;;
71427;SDS011;59246;59.102;37.928;2022-07-05T02:40:22;12.57;;;8.00;;
71427;SDS011;59246;59.102;37.928;2022-07-05T02:42:47;12.98;;;8.88;;
71427;SDS011;59246;59.102;37.928;2022-07-05T02:45:13;9.50;;;7.78;;
71427;SDS011;59246;59.102;37.928;2022-07-05T02:47:38;9.68;;;8.45;;
71427;SDS011;59246;59.102;37.928;2022-07-05T02:50:05;10.57;;;8.85;;
71427;SDS011;59246;59.102;37.928;2022-07-05T02:52:32;13.52;;;8.25;;
71427;SDS011;59246;59.102;37.928;2022-07-05T02:54:58;11.23;;;8.30;;
71427;SDS011;59246;59.102;37.928;2022-07-05T02:57:24;11.18;;;8.38;;
71427;SDS011;59246;59.102;37.928;2022-07-05T02:59:52;11.90;;;7.55;;
71427;SDS011;59246;59.102;37.928;2022-07-05T03:02:19;11.50;;;8.10;;
71427;SDS011;59246;59.102;37.928;2022-07-05T03:04:45;10.43;;;8.18;;
71427;SDS011;59246;59.102;37.928;2022-07-05T03:07:11;10.90;;;7.45;;
71427;SDS011;59246;59.102;37.928;2022-07-05T03:09:37;9.05;;;7.43;;
71427;SDS011;59246;59.102;37.928;2022-07-05T03:12:02;9.65;;;8.25;;
71427;SDS011;59246;59.102;37.928;2022-07-05T03:14:28;11.40;;;8.73;;
71427;SDS011;59246;59.102;37.928;2022-07-05T03:16:54;9.68;;;7.60;;
71427;SDS011;59246;59.102;37.928;2022-07-05T03:19:20;11.63;;;8.55;;
71427;SDS011;59246;59.102;37.928;2022-07-05T03:21:46;13.55;;;8.50;;
71427;SDS011;59246;59.102;37.928;2022-07-05T03:24:11;8.60;;;7.70;;
71427;SDS011;59246;59.102;37.928;2022-07-05T03:26:37;12.73;;;8.60;;
71427;SDS011;59246;59.102;37.928;2022-07-05T03:29:03;9.48;;;7.95;;
71427;SDS011;59246;59.102;37.928;2022-07-05T03:31:28;11.05;;;8.10;;
71427;SDS011;59246;59.102;37.928;2022-07-05T03:33:54;11.15;;;7.80;;
71427;SDS011;59246;59.102;37.928;2022-07-05T03:36:21;12.48;;;8.25;;
71427;SDS011;59246;59.102;37.928;2022-07-05T03:38:47;10.55;;;8.13;;
71427;SDS011;59246;59.102;37.928;2022-07-05T03:41:13;11.20;;;8.15;;
71427;SDS011;59246;59.102;37.928;2022-07-05T03:43:38;13.35;;;8.15;;
71427;SDS011;59246;59.102;37.928;2022-07-05T03:46:04;10.52;;;7.85;;
71427;SDS011;59246;59.102;37.928;2022-07-05T03:48:29;10.80;;;8.15;;
71427;SDS011;59246;59.102;37.928;2022-07-05T03:50:55;9.70;;;8.00;;
71427;SDS011;59246;59.102;37.928;2022-07-05T03:53:21;12.07;;;7.82;;
71427;SDS011;59246;59.102;37.928;2022-07-05T03:55:46;10.25;;;8.05;;
71427;SDS011;59246;59.102;37.928;2022-07-05T03:58:12;10.15;;;7.72;;
71427;SDS011;59246;59.102;37.928;2022-07-05T04:00:37;11.07;;;7.95;;
71427;SDS011;59246;59.102;37.928;2022-07-05T04:03:03;11.90;;;8.05;;
71427;SDS011;59246;59.102;37.928;2022-07-05T04:05:29;9.80;;;7.60;;
71427;SDS011;59246;59.102;37.928;2022-07-05T04:07:55;8.60;;;7.70;;
71427;SDS011;59246;59.102;37.928;2022-07-05T04:10:21;9.45;;;7.65;;
71427;SDS011;59246;59.102;37.928;2022-07-05T04:12:49;9.00;;;7.13;;
71427;SDS011;59246;59.102;37.928;2022-07-05T04:15:15;10.15;;;7.10;;
71427;SDS011;59246;59.102;37.928;2022-07-05T04:17:51;8.45;;;7.65;;
71427;SDS011;59246;59.102;37.928;2022-07-05T04:20:18;8.48;;;7.20;;
71427;SDS011;59246;59.102;37.928;2022-07-05T04:22:49;9.02;;;7.65;;
71427;SDS011;59246;59.102;37.928;2022-07-05T04:25:16;8.13;;;6.93;;
71427;SDS011;59246;59.102;37.928;2022-07-05T04:27:42;14.40;;;6.95;;
71427;SDS011;59246;59.102;37.928;2022-07-05T04:30:15;8.38;;;7.20;;
71427;SDS011;59246;59.102;37.928;2022-07-05T04:32:41;7.68;;;6.85;;
71427;SDS011;59246;59.102;37.928;2022-07-05T04:35:07;8.90;;;7.63;;
71427;SDS011;59246;59.102;37.928;2022-07-05T04:37:34;10.40;;;7.13;;
71427;SDS011;59246;59.102;37.928;2022-07-05T04:40:00;14.80;;;7.20;;
71427;SDS011;59246;59.102;37.928;2022-07-05T04:42:26;8.60;;;6.85;;
71427;SDS011;59246;59.102;37.928;2022-07-05T04:44:52;16.00;;;7.20;;
71427;SDS011;59246;59.102;37.928;2022-07-05T04:47:17;10.98;;;6.88;;
71427;SDS011;59246;59.102;37.928;2022-07-05T04:49:43;9.70;;;7.10;;
71427;SDS011;59246;59.102;37.928;2022-07-05T04:52:09;11.23;;;6.80;;
71427;SDS011;59246;59.102;37.928;2022-07-05T04:54:35;8.20;;;6.75;;
71427;SDS011;59246;59.102;37.928;2022-07-05T04:57:02;8.63;;;6.40;;
71427;SDS011;59246;59.102;37.928;2022-07-05T04:59:28;10.48;;;7.07;;
71427;SDS011;59246;59.102;37.928;2022-07-05T05:01:53;7.55;;;6.75;;
71427;SDS011;59246;59.102;37.928;2022-07-05T05:04:19;8.57;;;6.88;;
71427;SDS011;59246;59.102;37.928;2022-07-05T05:06:44;13.13;;;6.95;;
71427;SDS011;59246;59.102;37.928;2022-07-05T05:09:10;8.82;;;7.20;;
71427;SDS011;59246;59.102;37.928;2022-07-05T05:11:36;12.40;;;7.47;;
71427;SDS011;59246;59.102;37.928;2022-07-05T05:14:01;9.45;;;7.18;;
71427;SDS011;59246;59.102;37.928;2022-07-05T05:16:28;10.77;;;6.72;;
71427;SDS011;59246;59.102;37.928;2022-07-05T05:18:54;8.82;;;6.65;;
71427;SDS011;59246;59.102;37.928;2022-07-05T05:21:20;9.23;;;7.95;;
71427;SDS011;59246;59.102;37.928;2022-07-05T05:23:46;9.20;;;6.43;;
71427;SDS011;59246;59.102;37.928;2022-07-05T05:26:11;12.93;;;6.88;;
71427;SDS011;59246;59.102;37.928;2022-07-05T05:28:37;13.13;;;9.60;;
71427;SDS011;59246;59.102;37.928;2022-07-05T05:31:04;7.95;;;7.15;;
71427;SDS011;59246;59.102;37.928;2022-07-05T05:33:30;12.13;;;7.65;;
71427;SDS011;59246;59.102;37.928;2022-07-05T05:35:55;9.65;;;7.05;;
71427;SDS011;59246;59.102;37.928;2022-07-05T05:38:21;9.80;;;7.25;;
71427;SDS011;59246;59.102;37.928;2022-07-05T05:40:47;9.40;;;7.50;;
71427;SDS011;59246;59.102;37.928;2022-07-05T05:43:13;9.48;;;7.05;;
71427;SDS011;59246;59.102;37.928;2022-07-05T05:45:38;9.02;;;8.07;;
71427;SDS011;59246;59.102;37.928;2022-07-05T05:48:04;8.70;;;6.93;;
71427;SDS011;59246;59.102;37.928;2022-07-05T05:50:31;9.60;;;7.93;;
71427;SDS011;59246;59.102;37.928;2022-07-05T05:52:58;9.30;;;7.70;;
71427;SDS011;59246;59.102;37.928;2022-07-05T05:55:25;11.02;;;7.68;;
71427;SDS011;59246;59.102;37.928;2022-07-05T05:57:52;9.57;;;7.30;;
71427;SDS011;59246;59.102;37.928;2022-07-05T06:00:18;13.13;;;8.00;;
71427;SDS011;59246;59.102;37.928;2022-07-05T06:02:45;8.68;;;7.88;;
71427;SDS011;59246;59.102;37.928;2022-07-05T06:05:12;12.13;;;7.50;;
71427;SDS011;59246;59.102;37.928;2022-07-05T06:07:52;14.02;;;7.70;;
71427;SDS011;59246;59.102;37.928;2022-07-05T06:10:19;12.75;;;7.78;;
71427;SDS011;59246;59.102;37.928;2022-07-05T06:12:47;11.07;;;8.05;;
71427;SDS011;59246;59.102;37.928;2022-07-05T06:15:13;11.27;;;7.93;;
71427;SDS011;59246;59.102;37.928;2022-07-05T06:17:39;11.02;;;7.78;;
71427;SDS011;59246;59.102;37.928;2022-07-05T06:20:08;10.00;;;7.80;;
71427;SDS011;59246;59.102;37.928;2022-07-05T06:22:54;15.13;;;7.80;;
71427;SDS011;59246;59.102;37.928;2022-07-05T06:25:21;12.48;;;7.30;;
71427;SDS011;59246;59.102;37.928;2022-07-05T06:27:48;8.85;;;7.68;;
71427;SDS011;59246;59.102;37.928;2022-07-05T06:30:18;8.05;;;7.25;;
71427;SDS011;59246;59.102;37.928;2022-07-05T06:32:45;10.25;;;7.78;;
71427;SDS011;59246;59.102;37.928;2022-07-05T06:35:12;18.02;;;7.72;;
71427;SDS011;59246;59.102;37.928;2022-07-05T06:37:48;9.50;;;8.20;;
71427;SDS011;59246;59.102;37.928;2022-07-05T06:40:23;14.30;;;7.70;;
71427;SDS011;59246;59.102;37.928;2022-07-05T06:42:52;9.27;;;7.47;;
71427;SDS011;59246;59.102;37.928;2022-07-05T06:45:19;10.23;;;7.60;;
71427;SDS011;59246;59.102;37.928;2022-07-05T06:47:47;11.27;;;7.45;;
71427;SDS011;59246;59.102;37.928;2022-07-05T06:50:40;13.05;;;7.60;;
71427;SDS011;59246;59.102;37.928;2022-07-05T06:53:07;8.98;;;8.07;;
71427;SDS011;59246;59.102;37.928;2022-07-05T06:55:34;16.75;;;7.50;;
71427;SDS011;59246;59.102;37.928;2022-07-05T06:58:06;9.13;;;7.03;;
71427;SDS011;59246;59.102;37.928;2022-07-05T07:00:33;11.90;;;7.85;;
71427;SDS011;59246;59.102;37.928;2022-07-05T07:02:59;12.90;;;8.30;;
71427;SDS011;59246;59.102;37.928;2022-07-05T07:05:26;10.30;;;7.63;;
71427;SDS011;59246;59.102;37.928;2022-07-05T07:07:52;17.80;;;7.85;;
71427;SDS011;59246;59.102;37.928;2022-07-05T07:10:36;8.20;;;6.80;;
71427;SDS011;59246;59.102;37.928;2022-07-05T07:13:03;8.65;;;7.38;;
71427;SDS011;59246;59.102;37.928;2022-07-05T07:15:32;12.70;;;7.50;;
71427;SDS011;59246;59.102;37.928;2022-07-05T07:17:58;10.73;;;7.97;;
71427;SDS011;59246;59.102;37.928;2022-07-05T07:20:24;17.98;;;7.85;;
71427;SDS011;59246;59.102;37.928;2022-07-05T07:22:51;10.73;;;6.88;;
71427;SDS011;59246;59.102;37.928;2022-07-05T07:25:17;10.88;;;7.53;;
71427;SDS011;59246;59.102;37.928;2022-07-05T07:27:46;10.65;;;6.47;;
71427;SDS011;59246;59.102;37.928;2022-07-05T07:31:28;9.40;;;7.00;;
71427;SDS011;59246;59.102;37.928;2022-07-05T07:37:19;12.65;;;7.07;;
71427;SDS011;59246;59.102;37.928;2022-07-05T07:40:24;11.65;;;6.43;;
71427;SDS011;59246;59.102;37.928;2022-07-05T07:44:14;12.48;;;7.18;;
71427;SDS011;59246;59.102;37.928;2022-07-05T07:48:01;10.32;;;7.03;;
71427;SDS011;59246;59.102;37.928;2022-07-05T07:54:47;12.63;;;6.60;;
71427;SDS011;59246;59.102;37.928;2022-07-05T07:57:13;9.60;;;6.38;;
71427;SDS011;59246;59.102;37.928;2022-07-05T07:59:39;8.18;;;6.30;;
71427;SDS011;59246;59.102;37.928;2022-07-05T08:02:04;8.73;;;6.82;;
71427;SDS011;59246;59.102;37.928;2022-07-05T08:04:30;11.35;;;7.22;;
71427;SDS011;59246;59.102;37.928;2022-07-05T08:06:56;7.75;;;6.50;;
71427;SDS011;59246;59.102;37.928;2022-07-05T08:09:22;10.63;;;6.85;;
71427;SDS011;59246;59.102;37.928;2022-07-05T08:11:48;8.90;;;6.55;;
71427;SDS011;59246;59.102;37.928;2022-07-05T08:14:14;8.75;;;6.57;;
71427;SDS011;59246;59.102;37.928;2022-07-05T08:16:41;20.40;;;7.30;;
71427;SDS011;59246;59.102;37.928;2022-07-05T08:19:07;8.77;;;7.30;;
71427;SDS011;59246;59.102;37.928;2022-07-05T08:21:51;11.07;;;7.75;;
71427;SDS011;59246;59.102;37.928;2022-07-05T08:24:17;7.45;;;6.43;;
71427;SDS011;59246;59.102;37.928;2022-07-05T08:26:43;8.07;;;6.10;;
71427;SDS011;59246;59.102;37.928;2022-07-05T08:29:10;12.43;;;6.60;;
71427;SDS011;59246;59.102;37.928;2022-07-05T08:31:41;9.98;;;6.80;;
71427;SDS011;59246;59.102;37.928;2022-07-05T08:34:09;10.88;;;7.15;;
71427;SDS011;59246;59.102;37.928;2022-07-05T08:36:35;8.63;;;6.38;;
71427;SDS011;59246;59.102;37.928;2022-07-05T08:39:02;10.50;;;6.20;;
71427;SDS011;59246;59.102;37.928;2022-07-05T08:41:29;10.75;;;6.57;;
71427;SDS011;59246;59.102;37.928;2022-07-05T08:43:57;11.15;;;6.25;;
71427;SDS011;59246;59.102;37.928;2022-07-05T08:46:25;11.80;;;6.13;;
71427;SDS011;59246;59.102;37.928;2022-07-05T08:48:51;7.53;;;6.47;;
71427;SDS011;59246;59.102;37.928;2022-07-05T08:51:19;11.13;;;6.18;;
71427;SDS011;59246;59.102;37.928;2022-07-05T08:53:50;9.23;;;7.05;;
71427;SDS011;59246;59.102;37.928;2022-07-05T08:56:17;7.05;;;6.00;;
71427;SDS011;59246;59.102;37.928;2022-07-05T08:58:43;15.98;;;6.93;;
71427;SDS011;59246;59.102;37.928;2022-07-05T09:01:10;10.10;;;6.95;;
71427;SDS011;59246;59.102;37.928;2022-07-05T09:03:45;9.52;;;7.45;;
71427;SDS011;59246;59.102;37.928;2022-07-05T09:06:13;7.20;;;6.40;;
71427;SDS011;59246;59.102;37.928;2022-07-05T09:08:45;10.95;;;7.07;;
71427;SDS011;59246;59.102;37.928;2022-07-05T09:11:14;9.88;;;6.63;;
71427;SDS011;59246;59.102;37.928;2022-07-05T09:13:42;13.50;;;6.88;;
71427;SDS011;59246;59.102;37.928;2022-07-05T09:16:09;8.98;;;6.68;;
71427;SDS011;59246;59.102;37.928;2022-07-05T09:18:40;11.63;;;7.22;;
71427;SDS011;59246;59.102;37.928;2022-07-05T09:23:54;12.10;;;6.45;;
71427;SDS011;59246;59.102;37.928;2022-07-05T09:26:34;10.35;;;6.97;;
71427;SDS011;59246;59.102;37.928;2022-07-05T09:29:04;7.70;;;5.57;;
71427;SDS011;59246;59.102;37.928;2022-07-05T09:31:32;14.02;;;7.32;;
71427;SDS011;59246;59.102;37.928;2022-07-05T09:34:03;9.68;;;5.97;;
71427;SDS011;59246;59.102;37.928;2022-07-05T09:36:48;11.13;;;6.90;;
71427;SDS011;59246;59.102;37.928;2022-07-05T09:39:33;16.20;;;7.20;;
71427;SDS011;59246;59.102;37.928;2022-07-05T09:44:37;9.80;;;6.13;;
71427;SDS011;59246;59.102;37.928;2022-07-05T09:47:16;8.25;;;6.03;;
71427;SDS011;59246;59.102;37.928;2022-07-05T09:49:47;10.20;;;6.63;;
71427;SDS011;59246;59.102;37.928;2022-07-05T09:57:39;12.57;;;6.75;;
71427;SDS011;59246;59.102;37.928;2022-07-05T10:02:42;13.38;;;5.80;;
71427;SDS011;59246;59.102;37.928;2022-07-05T10:05:16;8.10;;;4.85;;
71427;SDS011;59246;59.102;37.928;2022-07-05T10:07:44;9.53;;;4.50;;
71427;SDS011;59246;59.102;37.928;2022-07-05T10:10:20;9.38;;;4.97;;
71427;SDS011;59246;59.102;37.928;2022-07-05T10:12:48;6.63;;;4.68;;
71427;SDS011;59246;59.102;37.928;2022-07-05T10:15:16;15.60;;;5.32;;
71427;SDS011;59246;59.102;37.928;2022-07-05T10:17:47;24.52;;;5.15;;
71427;SDS011;59246;59.102;37.928;2022-07-05T10:20:26;17.13;;;5.90;;
71427;SDS011;59246;59.102;37.928;2022-07-05T10:22:58;24.60;;;5.88;;
71427;SDS011;59246;59.102;37.928;2022-07-05T10:25:27;30.67;;;5.75;;
71427;SDS011;59246;59.102;37.928;2022-07-05T10:27:53;29.02;;;5.55;;
71427;SDS011;59246;59.102;37.928;2022-07-05T10:30:23;13.98;;;4.32;;
71427;SDS011;59246;59.102;37.928;2022-07-05T10:32:50;17.20;;;5.32;;
71427;SDS011;59246;59.102;37.928;2022-07-05T10:35:16;21.75;;;5.90;;
71427;SDS011;59246;59.102;37.928;2022-07-05T10:37:43;14.73;;;5.55;;
71427;SDS011;59246;59.102;37.928;2022-07-05T10:40:09;11.68;;;4.18;;
71427;SDS011;59246;59.102;37.928;2022-07-05T10:42:37;15.32;;;4.93;;
71427;SDS011;59246;59.102;37.928;2022-07-05T10:45:23;17.25;;;4.72;;
71427;SDS011;59246;59.102;37.928;2022-07-05T10:58:40;6.18;;;3.47;;
71427;SDS011;59246;59.102;37.928;2022-07-05T11:03:49;8.68;;;3.60;;
71427;SDS011;59246;59.102;37.928;2022-07-05T11:06:24;5.53;;;3.67;;
71427;SDS011;59246;59.102;37.928;2022-07-05T11:11:35;6.82;;;4.00;;
71427;SDS011;59246;59.102;37.928;2022-07-05T11:14:28;10.77;;;5.32;;
71427;SDS011;59246;59.102;37.928;2022-07-05T11:22:28;4.88;;;4.05;;
71427;SDS011;59246;59.102;37.928;2022-07-05T11:24:55;18.63;;;4.55;;
71427;SDS011;59246;59.102;37.928;2022-07-05T11:27:22;4.72;;;3.25;;
71427;SDS011;59246;59.102;37.928;2022-07-05T11:29:49;4.22;;;3.58;;
71427;SDS011;59246;59.102;37.928;2022-07-05T11:32:20;5.95;;;3.75;;
71427;SDS011;59246;59.102;37.928;2022-07-05T11:34:50;8.75;;;4.82;;
71427;SDS011;59246;59.102;37.928;2022-07-05T11:37:21;8.73;;;4.20;;
71427;SDS011;59246;59.102;37.928;2022-07-05T11:42:46;8.02;;;3.78;;
71427;SDS011;59246;59.102;37.928;2022-07-05T11:45:13;9.90;;;4.40;;
71427;SDS011;59246;59.102;37.928;2022-07-05T11:47:39;8.50;;;4.93;;
71427;SDS011;59246;59.102;37.928;2022-07-05T11:50:05;9.95;;;4.25;;
71427;SDS011;59246;59.102;37.928;2022-07-05T11:52:32;11.90;;;5.05;;
71427;SDS011;59246;59.102;37.928;2022-07-05T11:54:59;9.65;;;5.25;;
71427;SDS011;59246;59.102;37.928;2022-07-05T11:57:26;11.00;;;4.38;;
71427;SDS011;59246;59.102;37.928;2022-07-05T11:59:53;8.98;;;4.60;;
71427;SDS011;59246;59.102;37.928;2022-07-05T12:02:18;9.40;;;4.80;;
71427;SDS011;59246;59.102;37.928;2022-07-05T12:04:48;14.95;;;5.85;;
71427;SDS011;59246;59.102;37.928;2022-07-05T12:07:39;8.93;;;4.55;;
71427;SDS011;59246;59.102;37.928;2022-07-05T12:10:05;9.75;;;4.38;;
71427;SDS011;59246;59.102;37.928;2022-07-05T12:12:49;9.50;;;5.57;;
71427;SDS011;59246;59.102;37.928;2022-07-05T12:15:18;11.63;;;4.72;;
71427;SDS011;59246;59.102;37.928;2022-07-05T12:17:46;7.25;;;3.97;;
71427;SDS011;59246;59.102;37.928;2022-07-05T12:20:51;14.13;;;4.40;;
71427;SDS011;59246;59.102;37.928;2022-07-05T12:24:33;8.02;;;4.50;;
71427;SDS011;59246;59.102;37.928;2022-07-05T12:28:16;8.82;;;4.50;;
71427;SDS011;59246;59.102;37.928;2022-07-05T12:32:01;11.38;;;4.10;;
71427;SDS011;59246;59.102;37.928;2022-07-05T12:35:42;7.25;;;4.13;;
71427;SDS011;59246;59.102;37.928;2022-07-05T12:38:59;6.80;;;3.83;;
71427;SDS011;59246;59.102;37.928;2022-07-05T12:42:41;6.35;;;3.88;;
71427;SDS011;59246;59.102;37.928;2022-07-05T12:46:40;7.40;;;4.03;;
71427;SDS011;59246;59.102;37.928;2022-07-05T12:49:55;3.97;;;3.60;;
71427;SDS011;59246;59.102;37.928;2022-07-05T12:53:47;11.57;;;3.75;;
71427;SDS011;59246;59.102;37.928;2022-07-05T12:57:29;17.20;;;4.55;;
71427;SDS011;59246;59.102;37.928;2022-07-05T13:00:35;6.70;;;4.25;;
71427;SDS011;59246;59.102;37.928;2022-07-05T13:04:35;7.75;;;4.20;;
71427;SDS011;59246;59.102;37.928;2022-07-05T13:08:05;10.40;;;4.78;;
71427;SDS011;59246;59.102;37.928;2022-07-05T13:11:38;8.63;;;5.13;;
71427;SDS011;59246;59.102;37.928;2022-07-05T13:15:07;7.15;;;4.50;;
71427;SDS011;59246;59.102;37.928;2022-07-05T13:18:22;9.65;;;4.85;;
71427;SDS011;59246;59.102;37.928;2022-07-05T13:21:54;8.70;;;5.47;;
71427;SDS011;59246;59.102;37.928;2022-07-05T13:24:59;7.88;;;4.95;;
71427;SDS011;59246;59.102;37.928;2022-07-05T13:28:42;7.43;;;5.97;;
71427;SDS011;59246;59.102;37.928;2022-07-05T13:32:24;9.68;;;5.85;;
71427;SDS011;59246;59.102;37.928;2022-07-05T13:35:29;9.82;;;6.07;;
71427;SDS011;59246;59.102;37.928;2022-07-05T13:38:34;6.00;;;5.28;;
71427;SDS011;59246;59.102;37.928;2022-07-05T13:42:17;9.93;;;5.25;;
71427;SDS011;59246;59.102;37.928;2022-07-05T13:45:59;8.40;;;5.13;;
71427;SDS011;59246;59.102;37.928;2022-07-05T13:49:41;7.22;;;4.90;;
71427;SDS011;59246;59.102;37.928;2022-07-05T13:52:57;8.27;;;4.25;;
71427;SDS011;59246;59.102;37.928;2022-07-05T13:56:05;7.60;;;3.92;;
71427;SDS011;59246;59.102;37.928;2022-07-05T13:59:22;5.65;;;3.75;;
71427;SDS011;59246;59.102;37.928;2022-07-05T14:03:04;3.63;;;3.33;;
71427;SDS011;59246;59.102;37.928;2022-07-05T14:09:20;6.22;;;3.67;;
71427;SDS011;59246;59.102;37.928;2022-07-05T14:12:26;6.13;;;4.15;;
71427;SDS011;59246;59.102;37.928;2022-07-05T14:15:31;6.18;;;3.88;;
71427;SDS011;59246;59.102;37.928;2022-07-05T14:19:14;4.82;;;3.90;;
71427;SDS011;59246;59.102;37.928;2022-07-05T14:22:57;4.43;;;3.92;;
71427;SDS011;59246;59.102;37.928;2022-07-05T14:26:38;4.78;;;4.35;;
71427;SDS011;59246;59.102;37.928;2022-07-05T14:33:24;8.95;;;4.45;;
71427;SDS011;59246;59.102;37.928;2022-07-05T14:36:30;6.85;;;4.90;;
71427;SDS011;59246;59.102;37.928;2022-07-05T14:39:35;5.68;;;4.57;;
71427;SDS011;59246;59.102;37.928;2022-07-05T14:43:18;8.02;;;4.70;;
71427;SDS011;59246;59.102;37.928;2022-07-05T14:46:23;12.13;;;4.38;;
71427;SDS011;59246;59.102;37.928;2022-07-05T14:49:29;10.23;;;4.60;;
71427;SDS011;59246;59.102;37.928;2022-07-05T14:52:34;6.65;;;4.10;;
71427;SDS011;59246;59.102;37.928;2022-07-05T14:56:17;13.25;;;4.82;;
71427;SDS011;59246;59.102;37.928;2022-07-05T14:59:58;9.63;;;4.97;;
71427;SDS011;59246;59.102;37.928;2022-07-05T15:02:24;9.52;;;4.60;;
71427;SDS011;59246;59.102;37.928;2022-07-05T15:04:50;5.80;;;4.50;;
71427;SDS011;59246;59.102;37.928;2022-07-05T15:07:15;12.10;;;5.30;;
71427;SDS011;59246;59.102;37.928;2022-07-05T15:09:41;9.93;;;5.57;;
71427;SDS011;59246;59.102;37.928;2022-07-05T15:12:07;5.13;;;4.47;;
71427;SDS011;59246;59.102;37.928;2022-07-05T15:14:33;5.13;;;4.60;;
71427;SDS011;59246;59.102;37.928;2022-07-05T15:16:59;6.93;;;5.30;;
71427;SDS011;59246;59.102;37.928;2022-07-05T15:19:24;14.98;;;5.20;;
71427;SDS011;59246;59.102;37.928;2022-07-05T15:21:50;11.00;;;5.25;;
71427;SDS011;59246;59.102;37.928;2022-07-05T15:24:16;11.25;;;5.07;;
71427;SDS011;59246;59.102;37.928;2022-07-05T15:26:44;8.68;;;5.95;;
71427;SDS011;59246;59.102;37.928;2022-07-05T15:29:11;7.93;;;5.82;;
71427;SDS011;59246;59.102;37.928;2022-07-05T15:31:37;9.70;;;5.90;;
71427;SDS011;59246;59.102;37.928;2022-07-05T15:34:03;10.32;;;6.28;;
71427;SDS011;59246;59.102;37.928;2022-07-05T15:36:30;8.10;;;5.88;;
71427;SDS011;59246;59.102;37.928;2022-07-05T15:38:57;9.40;;;6.20;;
71427;SDS011;59246;59.102;37.928;2022-07-05T15:41:26;7.25;;;3.33;;
71427;SDS011;59246;59.102;37.928;2022-07-05T15:43:53;4.32;;;3.20;;
71427;SDS011;59246;59.102;37.928;2022-07-05T15:46:18;8.05;;;3.10;;
71427;SDS011;59246;59.102;37.928;2022-07-05T15:48:44;4.30;;;2.75;;
71427;SDS011;59246;59.102;37.928;2022-07-05T15:51:10;14.77;;;3.70;;
71427;SDS011;59246;59.102;37.928;2022-07-05T15:53:38;12.50;;;4.85;;
71427;SDS011;59246;59.102;37.928;2022-07-05T15:56:04;17.17;;;5.65;;
71427;SDS011;59246;59.102;37.928;2022-07-05T15:59:11;8.90;;;6.05;;
71427;SDS011;59246;59.102;37.928;2022-07-05T16:02:52;11.38;;;5.60;;
71427;SDS011;59246;59.102;37.928;2022-07-05T16:05:18;12.25;;;4.97;;
71427;SDS011;59246;59.102;37.928;2022-07-05T16:07:44;9.60;;;6.00;;
71427;SDS011;59246;59.102;37.928;2022-07-05T16:10:10;7.75;;;5.20;;
71427;SDS011;59246;59.102;37.928;2022-07-05T16:12:40;7.45;;;4.65;;
71427;SDS011;59246;59.102;37.928;2022-07-05T16:15:06;7.35;;;4.43;;
71427;SDS011;59246;59.102;37.928;2022-07-05T16:17:32;6.50;;;4.60;;
71427;SDS011;59246;59.102;37.928;2022-07-05T16:19:58;9.68;;;5.35;;
71427;SDS011;59246;59.102;37.928;2022-07-05T16:22:23;9.40;;;5.28;;